SBD weather

San Bernardino International Airport
San Bernardino, California, United States

Public forecast

Using degrees Fahrenheit for public forecast. Weather courtesy of forecast.io.

Current aviation weather report (METAR) for San Bernardino International Airport

Retrieved 2019/10/14 16:46 UTC (1 hour ago):

KSBD 141646Z 00000KT 5SM HZ SCT024 15/09 A2997

Aviation forecast (TAF) for San Bernardino International Airport

Retrieved 2019/10/14 12:22 UTC (6 hours ago):

TAF KSBD 141121Z 1412/1512 VRB04KT P6SM BKN020 FM141700 24005KT P6SM SKC FM142100 25010KT P6SM SKC FM150400 VRB04KT P6SM SKC